METAR Data
IDs: Format: Raw Decoded Include TAF

Data at: 0514 UTC 24 Sep 2018

KC09 240455Z AUTO 00000KT 10SM CLR 12/12 A3010 RMK AO2 T01200115
KC09 240435Z AUTO 00000KT 10SM CLR 13/13 A3011 RMK AO2 T01320125
KC09 240415Z AUTO 06003KT 10SM CLR 13/13 A3010 RMK AO2 T01320125
KC09 240355Z AUTO 00000KT 10SM CLR 13/12 A3010 RMK AO2 T01340124
KC09 240335Z AUTO 00000KT 10SM CLR 14/13 A3010 RMK AO2 T01370125
KC09 240315Z AUTO 06003KT 10SM CLR 14/13 A3010 RMK AO2 T01420126
KC09 240255Z AUTO 06003KT 10SM CLR 15/13 A3010 RMK AO2 T01480126
KC09 240235Z AUTO 06003KT 10SM CLR 15/12 A3010 RMK AO2 T01490124
KC09 240215Z AUTO 07004KT 10SM CLR 15/12 A3010 RMK AO2 T01540122
KC09 240155Z AUTO 06003KT 10SM CLR 16/12 A3009 RMK AO2 T01560122
KC09 240135Z AUTO 06003KT 10SM CLR 16/12 A3009 RMK AO2 T01600121
KC09 240115Z AUTO 06003KT 10SM CLR 17/12 A3009 RMK AO2 T01710121
KC09 240055Z AUTO 07006KT 10SM CLR 18/12 A3008 RMK AO2 T01770122
KC09 240035Z AUTO 07006KT 10SM CLR 18/12 A3008 RMK AO2 T01840120
KC09 240015Z AUTO 07005KT 10SM CLR 19/12 A3007 RMK AO2 T01920119
KC09 232355Z AUTO 07005KT 10SM CLR 20/12 A3007 RMK AO2 T02000115 10252 20200
KC09 232335Z AUTO 08005KT 10SM CLR 22/09 A3007 RMK AO2 T02150090
KC09 232315Z AUTO 12004KT 10SM CLR 23/08 A3007 RMK AO2 T02320084
KC09 232255Z AUTO 11006KT 10SM CLR 24/08 A3006 RMK AO2 T02410081
KC09 232235Z AUTO 12006KT 10SM CLR 24/08 A3006 RMK AO2 T02440080
KC09 232215Z AUTO 11005KT 10SM CLR 25/08 A3006 RMK AO2 T02480084
KC09 232155Z AUTO 11004KT 10SM CLR 25/08 A3006 RMK AO2 T02500082
KC09 232135Z AUTO 10005KT 10SM CLR 25/09 A3006 RMK AO2 T02510085
KC09 232115Z AUTO 13007KT 10SM CLR 25/08 A3006 RMK AO2 T02500084
KC09 232055Z AUTO 13004KT 10SM CLR 25/09 A3007 RMK AO2 T02510086
KC09 232035Z AUTO 14004KT 10SM CLR 25/09 A3007 RMK AO2 T02490085
KC09 232015Z AUTO 14008KT 10SM CLR 25/08 A3007 RMK AO2 T02460084
KC09 231955Z AUTO 13007KT 10SM CLR 25/09 A3008 RMK AO2 T02480087
KC09 231935Z AUTO 12008KT 100V160 10SM SCT002 25/09 A3009 RMK AO2 T02450092
KC09 231915Z AUTO 09006KT 10SM CLR 24/09 A3009 RMK AO2 T02410092
KC09 231855Z AUTO 16004KT 10SM CLR 24/10 A3010 RMK AO2 T02350096
KC09 231835Z AUTO 13007KT 100V160 10SM CLR 24/10 A3011 RMK AO2 T02350098
KC09 231815Z AUTO 16006KT 10SM CLR 23/10 A3012 RMK AO2 T02300098
KC09 231755Z AUTO 15006KT 10SM CLR 22/11 A3013 RMK AO2 T02220105 10224 20075
KC09 231735Z AUTO 12007KT 10SM CLR 22/11 A3014 RMK AO2 T02150105
KC09 231715Z AUTO 14005KT 10SM CLR 22/11 A3016 RMK AO2 T02180108
KC09 231655Z AUTO 11004KT 10SM CLR 21/11 A3016 RMK AO2 T02110107
KC09 231635Z AUTO 12009KT 10SM CLR 21/10 A3017 RMK AO2 T02060102
KC09 231615Z AUTO 12006KT 10SM CLR 21/11 A3018 RMK AO2 T02050106
KC09 231555Z AUTO 10005KT 10SM CLR 20/11 A3018 RMK AO2 T01980106
KC09 231535Z AUTO 12004KT 10SM CLR 19/10 A3018 RMK AO2 T01920104
KC09 231515Z AUTO 10005KT 10SM CLR 19/11 A3019 RMK AO2 T01850105
KC09 231455Z AUTO 12004KT 10SM CLR 18/11 A3019 RMK AO2 T01810109
KC09 231435Z AUTO 12004KT 10SM CLR 17/11 A3019 RMK AO2 T01680110
KC09 231415Z AUTO 10003KT 10SM CLR 15/11 A3019 RMK AO2 T01520114
KC09 231355Z AUTO 00000KT 10SM CLR 13/11 A3019 RMK AO2 T01330109
KC09 231335Z AUTO 11003KT 10SM CLR 13/11 A3019 RMK AO2 T01250108
KC09 231315Z AUTO 00000KT 10SM CLR 11/10 A3018 RMK AO2 T01050096
KC09 231255Z AUTO 00000KT 10SM CLR 09/09 A3018 RMK AO2 T00910086
KC09 231235Z AUTO 00000KT 7SM CLR 08/08 A3018 RMK AO2 T00820080
KC09 231215Z AUTO 00000KT 5SM BR CLR 08/08 A3018 RMK AO2 T00790075
KC09 231155Z AUTO 00000KT 5SM BR CLR 08/07 A3017 RMK AO2 T00750072 10091 20075
KC09 231135Z AUTO 00000KT 7SM CLR 08/07 A3017 RMK AO2 T00770074
KC09 231115Z AUTO 02003KT 7SM CLR 08/07 A3016 RMK AO2 T00760073
KC09 231055Z AUTO 00000KT 7SM CLR 08/08 A3016 RMK AO2 T00780075
KC09 231035Z AUTO 00000KT 7SM CLR 08/07 A3016 RMK AO2 T00770074
KC09 231015Z AUTO 00000KT 7SM CLR 08/07 A3017 RMK AO2 T00770073
KC09 230955Z AUTO 00000KT 7SM CLR 08/08 A3016 RMK AO2 T00820077
KC09 230935Z AUTO 00000KT 10SM CLR 08/08 A3016 RMK AO2 T00810075
KC09 230915Z AUTO 00000KT 10SM CLR 08/08 A3017 RMK AO2 T00820077
KC09 230850Z AUTO 04003KT 10SM CLR 08/08 A3016 RMK AO2 T00830078
KC09 230835Z AUTO 00000KT 10SM CLR 08/08 A3016 RMK AO2 T00830078
KC09 230815Z AUTO 00000KT 10SM CLR 09/08 A3016 RMK AO2 T00850080
KC09 230755Z AUTO 02004KT 10SM CLR 09/08 A3016 RMK AO2 T00850081
KC09 230735Z AUTO 02003KT 7SM CLR 08/08 A3017 RMK AO2 T00820079
KC09 230715Z AUTO 00000KT 7SM CLR 08/08 A3017 RMK AO2 T00830080
KC09 230655Z AUTO 00000KT 10SM CLR 09/08 A3017 RMK AO2 T00850080
KC09 230635Z AUTO 00000KT 10SM CLR 09/08 A3017 RMK AO2 T00850080
KC09 230615Z AUTO 00000KT 10SM CLR 09/08 A3017 RMK AO2 T00870081
KC09 230555Z AUTO 00000KT 10SM CLR 09/09 A3017 RMK AO2 T00910085 10159 20088 402100086
KC09 230535Z AUTO 00000KT 10SM CLR 09/09 A3017 RMK AO2 T00910085
KC09 230515Z AUTO 00000KT 7SM CLR 09/08 A3018 RMK AO2 T00910084
KC09 230455Z AUTO 00000KT 10SM CLR 09/08 A3018 RMK AO2 T00900082
KC09 230435Z AUTO 00000KT 10SM CLR 09/08 A3018 RMK AO2 T00900082
KC09 230415Z AUTO 08003KT 10SM CLR 09/08 A3019 RMK AO2 T00920082
KC09 230355Z AUTO 00000KT 10SM CLR 10/08 A3019 RMK AO2 T00960082
KC09 230335Z AUTO 00000KT 10SM CLR 10/08 A3019 RMK AO2 T00970082
KC09 230315Z AUTO 00000KT 10SM CLR 10/08 A3020 RMK AO2 T00980080
KC09 230255Z AUTO 00000KT 10SM CLR 11/08 A3020 RMK AO2 T01060083
KC09 230235Z AUTO 07003KT 10SM CLR 11/08 A3020 RMK AO2 T01110083
KC09 230215Z AUTO 00000KT 10SM CLR 12/08 A3020 RMK AO2 T01160081
KC09 230155Z AUTO 00000KT 10SM CLR 12/08 A3020 RMK AO2 T01160080
KC09 230135Z AUTO 00000KT 10SM CLR 12/08 A3019 RMK AO2 T01190076
KC09 230115Z AUTO 00000KT 10SM CLR 13/08 A3018 RMK AO2 T01300076
KC09 230055Z AUTO 07003KT 10SM CLR 14/07 A3018 RMK AO2 T01350072
KC09 230035Z AUTO 06003KT 10SM CLR 14/07 A3018 RMK AO2 T01410070
KC09 230015Z AUTO 00000KT 10SM CLR 15/07 A3018 RMK AO2 T01500068
KC09 222355Z AUTO 00000KT 10SM CLR 16/07 A3018 RMK AO2 T01600069 10210 20160
KC09 222335Z AUTO 00000KT 10SM CLR 17/07 A3018 RMK AO2 T01730069
KC09 222315Z AUTO 08003KT 10SM CLR 19/07 A3018 RMK AO2 T01850066
KC09 222255Z AUTO 09004KT 10SM CLR 19/06 A3018 RMK AO2 T01930063
KC09 222235Z AUTO 09004KT 10SM CLR 20/06 A3019 RMK AO2 T01980064
KC09 222215Z AUTO 08003KT 10SM CLR 20/06 A3019 RMK AO2 T02010060
KC09 222155Z AUTO 10003KT 10SM CLR 20/06 A3019 RMK AO2 T02040060
KC09 222135Z AUTO 10005KT 10SM CLR 21/06 A3020 RMK AO2 T02050060
KC09 222115Z AUTO 11005KT 10SM CLR 21/06 A3020 RMK AO2 T02050061
KC09 222055Z AUTO 00000KT 10SM CLR 21/06 A3020 RMK AO2 T02050064
KC09 222035Z AUTO 09007KT 070V130 10SM CLR 21/06 A3021 RMK AO2 T02060064
KC09 222015Z AUTO 11003KT 10SM CLR 21/06 A3021 RMK AO2 T02080064
KC09 221955Z AUTO 12007KT 10SM CLR 20/06 A3022 RMK AO2 T02000064
KC09 221930Z AUTO 09004KT 10SM CLR 20/07 A3023 RMK AO2 T02000065
KC09 221915Z AUTO 00000KT 10SM CLR 20/07 A3023 RMK AO2 T02040070
KC09 221855Z AUTO 08006KT 10SM CLR 20/06 A3024 RMK AO2 T02000060
KC09 221835Z AUTO 09004KT 10SM CLR 20/06 A3025 RMK AO2 T02020061
KC09 221815Z AUTO 08007KT 10SM CLR 20/07 A3026 RMK AO2 T02000071
KC09 221755Z AUTO 11005KT 10SM CLR 20/07 A3027 RMK AO2 T01950068 10196 20086
KC09 221735Z AUTO 08008KT 10SM CLR 19/07 A3028 RMK AO2 T01940068
KC09 221715Z AUTO 10005KT 10SM CLR 19/07 A3028 RMK AO2 T01930066